sensor_id;sensor_type;location;lat;lon;timestamp;temperature;humidity
49184;DHT22;35021;49.214;12.270;2024-01-27T00:01:29;20.70;32.20
49184;DHT22;35021;49.214;12.270;2024-01-27T00:03:56;20.70;32.10
49184;DHT22;35021;49.214;12.270;2024-01-27T00:06:23;20.70;32.20
49184;DHT22;35021;49.214;12.270;2024-01-27T00:08:50;20.70;32.10
49184;DHT22;35021;49.214;12.270;2024-01-27T00:11:17;20.70;32.80
49184;DHT22;35021;49.214;12.270;2024-01-27T00:13:44;20.70;32.20
49184;DHT22;35021;49.214;12.270;2024-01-27T00:16:11;20.70;32.10
49184;DHT22;35021;49.214;12.270;2024-01-27T00:18:38;20.70;32.80
49184;DHT22;35021;49.214;12.270;2024-01-27T00:21:06;20.70;32.10
49184;DHT22;35021;49.214;12.270;2024-01-27T00:23:33;20.70;32.00
49184;DHT22;35021;49.214;12.270;2024-01-27T00:26:01;20.70;32.00
49184;DHT22;35021;49.214;12.270;2024-01-27T00:28:28;20.70;32.00
49184;DHT22;35021;49.214;12.270;2024-01-27T00:30:55;20.70;31.90
49184;DHT22;35021;49.214;12.270;2024-01-27T00:33:22;20.70;32.00
49184;DHT22;35021;49.214;12.270;2024-01-27T00:35:49;20.70;32.00
49184;DHT22;35021;49.214;12.270;2024-01-27T00:38:16;20.70;32.00
49184;DHT22;35021;49.214;12.270;2024-01-27T00:40:43;20.60;32.00
49184;DHT22;35021;49.214;12.270;2024-01-27T00:43:10;20.60;32.10
49184;DHT22;35021;49.214;12.270;2024-01-27T00:45:37;20.60;32.10
49184;DHT22;35021;49.214;12.270;2024-01-27T00:48:04;20.60;32.10
49184;DHT22;35021;49.214;12.270;2024-01-27T00:50:31;20.50;32.20
49184;DHT22;35021;49.214;12.270;2024-01-27T00:52:58;20.50;32.20
49184;DHT22;35021;49.214;12.270;2024-01-27T00:55:25;20.50;32.30
49184;DHT22;35021;49.214;12.270;2024-01-27T00:57:52;20.50;32.30
49184;DHT22;35021;49.214;12.270;2024-01-27T01:00:20;20.50;32.40
49184;DHT22;35021;49.214;12.270;2024-01-27T01:02:47;20.40;32.30
49184;DHT22;35021;49.214;12.270;2024-01-27T01:05:15;20.40;32.30
49184;DHT22;35021;49.214;12.270;2024-01-27T01:07:42;20.40;32.30
49184;DHT22;35021;49.214;12.270;2024-01-27T01:10:09;20.40;32.40
49184;DHT22;35021;49.214;12.270;2024-01-27T01:12:35;20.40;32.40
49184;DHT22;35021;49.214;12.270;2024-01-27T01:15:03;20.40;32.40
49184;DHT22;35021;49.214;12.270;2024-01-27T01:17:31;20.40;32.30
49184;DHT22;35021;49.214;12.270;2024-01-27T01:19:58;20.40;32.30
49184;DHT22;35021;49.214;12.270;2024-01-27T01:22:25;20.40;32.30
49184;DHT22;35021;49.214;12.270;2024-01-27T01:24:52;20.30;32.20
49184;DHT22;35021;49.214;12.270;2024-01-27T01:27:19;20.30;32.20
49184;DHT22;35021;49.214;12.270;2024-01-27T01:29:47;20.30;32.20
49184;DHT22;35021;49.214;12.270;2024-01-27T01:32:14;20.30;32.10
49184;DHT22;35021;49.214;12.270;2024-01-27T01:34:42;20.30;32.10
49184;DHT22;35021;49.214;12.270;2024-01-27T01:37:09;20.30;32.10
49184;DHT22;35021;49.214;12.270;2024-01-27T01:39:36;20.30;32.00
49184;DHT22;35021;49.214;12.270;2024-01-27T01:42:03;20.30;32.00
49184;DHT22;35021;49.214;12.270;2024-01-27T01:44:30;20.30;32.00
49184;DHT22;35021;49.214;12.270;2024-01-27T01:46:58;20.30;32.00
49184;DHT22;35021;49.214;12.270;2024-01-27T01:49:26;20.30;31.90
49184;DHT22;35021;49.214;12.270;2024-01-27T01:51:53;20.30;31.90
49184;DHT22;35021;49.214;12.270;2024-01-27T01:54:20;20.40;31.90
49184;DHT22;35021;49.214;12.270;2024-01-27T01:56:49;20.30;31.80
49184;DHT22;35021;49.214;12.270;2024-01-27T01:59:16;20.40;31.80
49184;DHT22;35021;49.214;12.270;2024-01-27T02:01:43;20.40;31.80
49184;DHT22;35021;49.214;12.270;2024-01-27T02:04:12;20.40;31.80
49184;DHT22;35021;49.214;12.270;2024-01-27T02:06:39;20.30;31.60
49184;DHT22;35021;49.214;12.270;2024-01-27T02:09:06;20.30;31.60
49184;DHT22;35021;49.214;12.270;2024-01-27T02:11:33;20.30;31.60
49184;DHT22;35021;49.214;12.270;2024-01-27T02:14:00;20.40;31.60
49184;DHT22;35021;49.214;12.270;2024-01-27T02:16:28;20.30;31.50
49184;DHT22;35021;49.214;12.270;2024-01-27T02:18:55;20.30;31.50
49184;DHT22;35021;49.214;12.270;2024-01-27T02:21:22;20.40;31.50
49184;DHT22;35021;49.214;12.270;2024-01-27T02:23:49;20.40;31.50
49184;DHT22;35021;49.214;12.270;2024-01-27T02:26:16;20.30;32.20
49184;DHT22;35021;49.214;12.270;2024-01-27T02:28:43;20.40;31.50
49184;DHT22;35021;49.214;12.270;2024-01-27T02:31:10;20.30;31.40
49184;DHT22;35021;49.214;12.270;2024-01-27T02:33:37;20.30;31.40
49184;DHT22;35021;49.214;12.270;2024-01-27T02:36:04;20.30;31.40
49184;DHT22;35021;49.214;12.270;2024-01-27T02:38:31;20.30;31.40
49184;DHT22;35021;49.214;12.270;2024-01-27T02:40:58;20.20;31.40
49184;DHT22;35021;49.214;12.270;2024-01-27T02:43:25;20.20;31.40
49184;DHT22;35021;49.214;12.270;2024-01-27T02:45:52;20.20;31.40
49184;DHT22;35021;49.214;12.270;2024-01-27T02:48:19;20.10;31.30
49184;DHT22;35021;49.214;12.270;2024-01-27T02:50:46;20.20;31.40
49184;DHT22;35021;49.214;12.270;2024-01-27T02:53:13;20.20;31.30
49184;DHT22;35021;49.214;12.270;2024-01-27T02:55:40;20.20;31.30
49184;DHT22;35021;49.214;12.270;2024-01-27T02:58:07;20.20;31.30
49184;DHT22;35021;49.214;12.270;2024-01-27T03:00:34;20.20;31.30
49184;DHT22;35021;49.214;12.270;2024-01-27T03:03:01;20.10;31.30
49184;DHT22;35021;49.214;12.270;2024-01-27T03:05:28;20.10;31.30
49184;DHT22;35021;49.214;12.270;2024-01-27T03:07:55;20.10;31.30
49184;DHT22;35021;49.214;12.270;2024-01-27T03:10:22;20.10;31.20
49184;DHT22;35021;49.214;12.270;2024-01-27T03:12:49;20.10;31.20
49184;DHT22;35021;49.214;12.270;2024-01-27T03:15:16;20.10;31.10
49184;DHT22;35021;49.214;12.270;2024-01-27T03:17:43;20.10;31.10
49184;DHT22;35021;49.214;12.270;2024-01-27T03:20:10;20.10;31.10
49184;DHT22;35021;49.214;12.270;2024-01-27T03:22:38;20.10;31.10
49184;DHT22;35021;49.214;12.270;2024-01-27T03:25:07;20.10;31.10
49184;DHT22;35021;49.214;12.270;2024-01-27T03:27:35;20.10;31.10
49184;DHT22;35021;49.214;12.270;2024-01-27T03:30:02;20.10;31.10
49184;DHT22;35021;49.214;12.270;2024-01-27T03:32:31;20.10;31.10
49184;DHT22;35021;49.214;12.270;2024-01-27T03:35:02;20.10;31.10
49184;DHT22;35021;49.214;12.270;2024-01-27T03:37:30;20.10;31.10
49184;DHT22;35021;49.214;12.270;2024-01-27T03:39:56;20.10;31.80
49184;DHT22;35021;49.214;12.270;2024-01-27T03:42:23;20.10;31.10
49184;DHT22;35021;49.214;12.270;2024-01-27T03:44:51;20.10;31.10
49184;DHT22;35021;49.214;12.270;2024-01-27T03:47:19;20.10;31.10
49184;DHT22;35021;49.214;12.270;2024-01-27T03:49:46;20.10;31.10
49184;DHT22;35021;49.214;12.270;2024-01-27T03:52:14;20.10;31.00
49184;DHT22;35021;49.214;12.270;2024-01-27T03:54:41;20.10;31.00
49184;DHT22;35021;49.214;12.270;2024-01-27T03:57:08;20.10;30.90
49184;DHT22;35021;49.214;12.270;2024-01-27T03:59:35;20.10;30.90
49184;DHT22;35021;49.214;12.270;2024-01-27T04:02:02;20.10;30.80
49184;DHT22;35021;49.214;12.270;2024-01-27T04:04:29;20.10;30.80
49184;DHT22;35021;49.214;12.270;2024-01-27T04:06:56;20.10;30.80
49184;DHT22;35021;49.214;12.270;2024-01-27T04:09:23;20.10;30.80
49184;DHT22;35021;49.214;12.270;2024-01-27T04:11:51;20.10;30.80
49184;DHT22;35021;49.214;12.270;2024-01-27T04:14:18;20.10;30.80
49184;DHT22;35021;49.214;12.270;2024-01-27T04:16:45;20.10;30.70
49184;DHT22;35021;49.214;12.270;2024-01-27T04:19:11;20.10;30.70
49184;DHT22;35021;49.214;12.270;2024-01-27T04:21:39;20.10;30.70
49184;DHT22;35021;49.214;12.270;2024-01-27T04:24:06;20.10;30.70
49184;DHT22;35021;49.214;12.270;2024-01-27T04:26:33;20.10;30.70
49184;DHT22;35021;49.214;12.270;2024-01-27T04:28:59;20.10;30.70
49184;DHT22;35021;49.214;12.270;2024-01-27T04:31:26;20.10;30.80
49184;DHT22;35021;49.214;12.270;2024-01-27T04:33:53;20.10;30.80
49184;DHT22;35021;49.214;12.270;2024-01-27T04:36:30;20.00;30.80
49184;DHT22;35021;49.214;12.270;2024-01-27T04:38:57;20.00;30.90
49184;DHT22;35021;49.214;12.270;2024-01-27T04:41:24;19.90;30.90
49184;DHT22;35021;49.214;12.270;2024-01-27T04:43:51;19.90;30.90
49184;DHT22;35021;49.214;12.270;2024-01-27T04:46:19;19.90;30.90
49184;DHT22;35021;49.214;12.270;2024-01-27T04:48:47;19.90;30.90
49184;DHT22;35021;49.214;12.270;2024-01-27T04:51:14;19.90;30.80
49184;DHT22;35021;49.214;12.270;2024-01-27T04:53:41;19.90;30.70
49184;DHT22;35021;49.214;12.270;2024-01-27T04:56:08;20.00;30.50
49184;DHT22;35021;49.214;12.270;2024-01-27T04:58:36;20.00;30.50
49184;DHT22;35021;49.214;12.270;2024-01-27T05:01:03;20.10;30.40
49184;DHT22;35021;49.214;12.270;2024-01-27T05:03:30;20.20;30.20
49184;DHT22;35021;49.214;12.270;2024-01-27T05:05:58;20.30;30.10
49184;DHT22;35021;49.214;12.270;2024-01-27T05:08:25;20.30;30.00
49184;DHT22;35021;49.214;12.270;2024-01-27T05:10:52;20.40;29.90
49184;DHT22;35021;49.214;12.270;2024-01-27T05:13:23;20.50;29.90
49184;DHT22;35021;49.214;12.270;2024-01-27T05:15:50;20.60;29.90
49184;DHT22;35021;49.214;12.270;2024-01-27T05:18:17;20.70;29.80
49184;DHT22;35021;49.214;12.270;2024-01-27T05:20:44;20.60;29.70
49184;DHT22;35021;49.214;12.270;2024-01-27T05:23:11;20.70;29.70
49184;DHT22;35021;49.214;12.270;2024-01-27T05:25:38;20.70;29.70
49184;DHT22;35021;49.214;12.270;2024-01-27T05:28:06;20.60;29.60
49184;DHT22;35021;49.214;12.270;2024-01-27T05:30:33;20.60;29.60
49184;DHT22;35021;49.214;12.270;2024-01-27T05:33:00;20.60;29.70
49184;DHT22;35021;49.214;12.270;2024-01-27T05:35:27;20.60;29.80
49184;DHT22;35021;49.214;12.270;2024-01-27T05:37:54;20.60;29.70
49184;DHT22;35021;49.214;12.270;2024-01-27T05:40:21;20.60;29.80
49184;DHT22;35021;49.214;12.270;2024-01-27T05:42:48;20.60;29.60
49184;DHT22;35021;49.214;12.270;2024-01-27T05:45:16;20.70;29.60
49184;DHT22;35021;49.214;12.270;2024-01-27T05:47:43;20.70;29.60
49184;DHT22;35021;49.214;12.270;2024-01-27T05:50:10;20.80;29.50
49184;DHT22;35021;49.214;12.270;2024-01-27T05:52:37;20.80;29.40
49184;DHT22;35021;49.214;12.270;2024-01-27T05:55:04;20.90;29.40
49184;DHT22;35021;49.214;12.270;2024-01-27T05:57:33;20.90;29.30
49184;DHT22;35021;49.214;12.270;2024-01-27T06:00:01;20.90;29.30
49184;DHT22;35021;49.214;12.270;2024-01-27T06:02:28;20.90;29.30
49184;DHT22;35021;49.214;12.270;2024-01-27T06:04:55;20.90;29.40
49184;DHT22;35021;49.214;12.270;2024-01-27T06:07:22;20.80;29.40
49184;DHT22;35021;49.214;12.270;2024-01-27T06:09:49;20.80;29.40
49184;DHT22;35021;49.214;12.270;2024-01-27T06:12:16;20.70;29.40
49184;DHT22;35021;49.214;12.270;2024-01-27T06:14:43;20.70;29.40
49184;DHT22;35021;49.214;12.270;2024-01-27T06:17:10;20.60;29.30
49184;DHT22;35021;49.214;12.270;2024-01-27T06:19:37;20.60;29.40
49184;DHT22;35021;49.214;12.270;2024-01-27T06:22:04;20.60;29.40
49184;DHT22;35021;49.214;12.270;2024-01-27T06:24:32;20.60;29.40
49184;DHT22;35021;49.214;12.270;2024-01-27T06:26:59;20.60;29.50
49184;DHT22;35021;49.214;12.270;2024-01-27T06:29:26;20.60;29.50
49184;DHT22;35021;49.214;12.270;2024-01-27T06:31:54;20.60;29.50
49184;DHT22;35021;49.214;12.270;2024-01-27T06:34:21;20.60;29.40
49184;DHT22;35021;49.214;12.270;2024-01-27T06:36:48;20.60;29.30
49184;DHT22;35021;49.214;12.270;2024-01-27T06:39:14;20.60;29.30
49184;DHT22;35021;49.214;12.270;2024-01-27T06:41:42;20.60;29.20
49184;DHT22;35021;49.214;12.270;2024-01-27T06:44:08;20.70;29.30
49184;DHT22;35021;49.214;12.270;2024-01-27T06:46:36;20.60;29.20
49184;DHT22;35021;49.214;12.270;2024-01-27T06:49:02;20.60;29.10
49184;DHT22;35021;49.214;12.270;2024-01-27T06:51:30;20.50;29.10
49184;DHT22;35021;49.214;12.270;2024-01-27T06:53:57;20.50;29.10
49184;DHT22;35021;49.214;12.270;2024-01-27T06:56:24;20.50;29.20
49184;DHT22;35021;49.214;12.270;2024-01-27T06:58:51;20.40;29.20
49184;DHT22;35021;49.214;12.270;2024-01-27T07:01:18;20.40;29.20
49184;DHT22;35021;49.214;12.270;2024-01-27T07:03:45;20.40;29.20
49184;DHT22;35021;49.214;12.270;2024-01-27T07:06:12;20.40;29.20
49184;DHT22;35021;49.214;12.270;2024-01-27T07:08:39;20.40;29.20
49184;DHT22;35021;49.214;12.270;2024-01-27T07:11:06;20.40;29.20
49184;DHT22;35021;49.214;12.270;2024-01-27T07:13:33;20.50;29.20
49184;DHT22;35021;49.214;12.270;2024-01-27T07:16:00;20.50;29.20
49184;DHT22;35021;49.214;12.270;2024-01-27T07:18:27;20.50;29.20
49184;DHT22;35021;49.214;12.270;2024-01-27T07:20:56;20.60;29.20
49184;DHT22;35021;49.214;12.270;2024-01-27T07:23:26;20.60;29.70
49184;DHT22;35021;49.214;12.270;2024-01-27T07:25:53;20.60;29.10
49184;DHT22;35021;49.214;12.270;2024-01-27T07:28:20;20.60;29.00
49184;DHT22;35021;49.214;12.270;2024-01-27T07:30:47;20.60;29.00
49184;DHT22;35021;49.214;12.270;2024-01-27T07:33:14;20.60;29.10
49184;DHT22;35021;49.214;12.270;2024-01-27T07:35:41;20.60;29.10
49184;DHT22;35021;49.214;12.270;2024-01-27T07:38:08;20.60;29.10
49184;DHT22;35021;49.214;12.270;2024-01-27T07:40:35;20.50;29.10
49184;DHT22;35021;49.214;12.270;2024-01-27T07:43:02;20.40;29.20
49184;DHT22;35021;49.214;12.270;2024-01-27T07:45:30;20.40;29.30
49184;DHT22;35021;49.214;12.270;2024-01-27T07:47:58;20.30;29.40
49184;DHT22;35021;49.214;12.270;2024-01-27T07:50:28;20.30;29.50
49184;DHT22;35021;49.214;12.270;2024-01-27T07:52:55;20.30;29.60
49184;DHT22;35021;49.214;12.270;2024-01-27T07:55:22;20.30;29.60
49184;DHT22;35021;49.214;12.270;2024-01-27T07:57:49;20.30;29.60
49184;DHT22;35021;49.214;12.270;2024-01-27T08:00:19;20.30;29.60
49184;DHT22;35021;49.214;12.270;2024-01-27T08:02:46;20.30;29.60
49184;DHT22;35021;49.214;12.270;2024-01-27T08:05:13;20.30;29.60
49184;DHT22;35021;49.214;12.270;2024-01-27T08:07:41;20.30;29.60
49184;DHT22;35021;49.214;12.270;2024-01-27T08:10:08;20.40;29.60
49184;DHT22;35021;49.214;12.270;2024-01-27T08:12:37;20.40;29.60
49184;DHT22;35021;49.214;12.270;2024-01-27T08:15:05;20.40;29.70
49184;DHT22;35021;49.214;12.270;2024-01-27T08:17:32;20.40;29.80
49184;DHT22;35021;49.214;12.270;2024-01-27T08:19:59;20.40;29.90
49184;DHT22;35021;49.214;12.270;2024-01-27T08:22:26;20.30;29.90
49184;DHT22;35021;49.214;12.270;2024-01-27T08:24:53;20.30;30.00
49184;DHT22;35021;49.214;12.270;2024-01-27T08:27:20;20.20;30.00
49184;DHT22;35021;49.214;12.270;2024-01-27T08:29:47;20.20;30.10
49184;DHT22;35021;49.214;12.270;2024-01-27T08:32:14;20.20;30.10
49184;DHT22;35021;49.214;12.270;2024-01-27T08:34:42;20.10;30.10
49184;DHT22;35021;49.214;12.270;2024-01-27T08:37:17;20.20;30.30
49184;DHT22;35021;49.214;12.270;2024-01-27T08:39:44;20.20;30.40
49184;DHT22;35021;49.214;12.270;2024-01-27T08:42:11;20.20;30.40
49184;DHT22;35021;49.214;12.270;2024-01-27T08:44:39;20.20;30.40
49184;DHT22;35021;49.214;12.270;2024-01-27T08:47:06;20.30;30.50
49184;DHT22;35021;49.214;12.270;2024-01-27T08:49:34;20.30;30.50
49184;DHT22;35021;49.214;12.270;2024-01-27T08:52:02;20.30;30.50
49184;DHT22;35021;49.214;12.270;2024-01-27T08:54:29;20.40;30.60
49184;DHT22;35021;49.214;12.270;2024-01-27T08:56:56;20.50;30.60
49184;DHT22;35021;49.214;12.270;2024-01-27T08:59:23;20.50;30.60
49184;DHT22;35021;49.214;12.270;2024-01-27T09:01:50;20.50;30.50
49184;DHT22;35021;49.214;12.270;2024-01-27T09:04:17;20.60;30.50
49184;DHT22;35021;49.214;12.270;2024-01-27T09:06:44;20.50;30.50
49184;DHT22;35021;49.214;12.270;2024-01-27T09:09:12;20.50;30.60
49184;DHT22;35021;49.214;12.270;2024-01-27T09:11:39;20.50;30.60
49184;DHT22;35021;49.214;12.270;2024-01-27T09:14:07;20.50;30.70
49184;DHT22;35021;49.214;12.270;2024-01-27T09:16:34;20.40;30.80
49184;DHT22;35021;49.214;12.270;2024-01-27T09:19:01;20.30;30.80
49184;DHT22;35021;49.214;12.270;2024-01-27T09:21:29;20.30;30.90
49184;DHT22;35021;49.214;12.270;2024-01-27T09:23:58;20.30;31.00
49184;DHT22;35021;49.214;12.270;2024-01-27T09:26:25;20.40;30.90
49184;DHT22;35021;49.214;12.270;2024-01-27T09:28:52;20.40;30.90
49184;DHT22;35021;49.214;12.270;2024-01-27T09:31:25;20.50;30.80
49184;DHT22;35021;49.214;12.270;2024-01-27T09:33:53;20.50;30.70
49184;DHT22;35021;49.214;12.270;2024-01-27T09:36:21;20.60;30.60
49184;DHT22;35021;49.214;12.270;2024-01-27T09:38:51;20.60;30.50
49184;DHT22;35021;49.214;12.270;2024-01-27T09:41:24;20.60;30.50
49184;DHT22;35021;49.214;12.270;2024-01-27T09:43:52;20.70;30.50
49184;DHT22;35021;49.214;12.270;2024-01-27T09:46:20;20.70;30.60
49184;DHT22;35021;49.214;12.270;2024-01-27T09:48:47;20.70;30.50
49184;DHT22;35021;49.214;12.270;2024-01-27T09:51:14;20.70;30.50
49184;DHT22;35021;49.214;12.270;2024-01-27T09:53:42;20.70;30.50
49184;DHT22;35021;49.214;12.270;2024-01-27T09:56:11;20.70;30.50
49184;DHT22;35021;49.214;12.270;2024-01-27T09:59:00;20.70;30.60
49184;DHT22;35021;49.214;12.270;2024-01-27T10:01:33;20.60;30.50
49184;DHT22;35021;49.214;12.270;2024-01-27T10:04:41;20.60;30.60
49184;DHT22;35021;49.214;12.270;2024-01-27T10:07:11;20.60;30.60
49184;DHT22;35021;49.214;12.270;2024-01-27T10:09:38;20.60;30.60
49184;DHT22;35021;49.214;12.270;2024-01-27T10:12:07;20.60;30.60
49184;DHT22;35021;49.214;12.270;2024-01-27T10:14:42;20.60;30.60
49184;DHT22;35021;49.214;12.270;2024-01-27T10:17:11;20.70;30.60
49184;DHT22;35021;49.214;12.270;2024-01-27T10:19:39;20.70;30.50
49184;DHT22;35021;49.214;12.270;2024-01-27T10:22:11;20.80;30.40
49184;DHT22;35021;49.214;12.270;2024-01-27T10:24:38;20.90;30.40
49184;DHT22;35021;49.214;12.270;2024-01-27T10:27:05;21.00;30.30
49184;DHT22;35021;49.214;12.270;2024-01-27T10:29:33;21.00;30.20
49184;DHT22;35021;49.214;12.270;2024-01-27T10:32:09;21.10;30.10
49184;DHT22;35021;49.214;12.270;2024-01-27T10:34:37;21.20;30.00
49184;DHT22;35021;49.214;12.270;2024-01-27T10:37:04;21.20;30.00
49184;DHT22;35021;49.214;12.270;2024-01-27T10:39:31;21.30;29.80
49184;DHT22;35021;49.214;12.270;2024-01-27T10:42:00;21.30;29.80
49184;DHT22;35021;49.214;12.270;2024-01-27T10:44:31;21.30;29.80
49184;DHT22;35021;49.214;12.270;2024-01-27T10:46:59;21.40;29.80
49184;DHT22;35021;49.214;12.270;2024-01-27T10:49:28;21.40;29.80
49184;DHT22;35021;49.214;12.270;2024-01-27T10:51:59;21.40;29.60
49184;DHT22;35021;49.214;12.270;2024-01-27T10:54:28;21.40;29.60
49184;DHT22;35021;49.214;12.270;2024-01-27T10:56:59;21.40;29.60
49184;DHT22;35021;49.214;12.270;2024-01-27T10:59:28;21.50;29.60
49184;DHT22;35021;49.214;12.270;2024-01-27T11:01:57;21.50;29.60
49184;DHT22;35021;49.214;12.270;2024-01-27T11:04:24;21.50;29.60
49184;DHT22;35021;49.214;12.270;2024-01-27T11:06:52;21.60;29.60
49184;DHT22;35021;49.214;12.270;2024-01-27T11:09:21;21.60;29.60
49184;DHT22;35021;49.214;12.270;2024-01-27T11:11:48;21.60;29.60
49184;DHT22;35021;49.214;12.270;2024-01-27T11:14:16;21.70;29.60
49184;DHT22;35021;49.214;12.270;2024-01-27T11:16:43;21.70;29.60
49184;DHT22;35021;49.214;12.270;2024-01-27T11:19:12;21.80;29.60
49184;DHT22;35021;49.214;12.270;2024-01-27T11:21:40;21.80;29.60
49184;DHT22;35021;49.214;12.270;2024-01-27T11:24:16;21.90;29.50
49184;DHT22;35021;49.214;12.270;2024-01-27T11:26:44;22.00;30.00
49184;DHT22;35021;49.214;12.270;2024-01-27T11:29:11;22.10;29.40
49184;DHT22;35021;49.214;12.270;2024-01-27T11:31:48;22.10;29.30
49184;DHT22;35021;49.214;12.270;2024-01-27T11:34:15;22.10;29.40
49184;DHT22;35021;49.214;12.270;2024-01-27T11:36:48;22.10;29.20
49184;DHT22;35021;49.214;12.270;2024-01-27T11:41:51;22.10;29.20
49184;DHT22;35021;49.214;12.270;2024-01-27T11:44:19;22.10;29.10
49184;DHT22;35021;49.214;12.270;2024-01-27T11:46:47;22.10;28.90
49184;DHT22;35021;49.214;12.270;2024-01-27T11:49:15;22.00;28.80
49184;DHT22;35021;49.214;12.270;2024-01-27T11:51:42;22.00;29.00
49184;DHT22;35021;49.214;12.270;2024-01-27T11:54:10;22.00;29.10
49184;DHT22;35021;49.214;12.270;2024-01-27T11:56:37;22.00;29.10
49184;DHT22;35021;49.214;12.270;2024-01-27T11:59:07;22.00;29.10
49184;DHT22;35021;49.214;12.270;2024-01-27T12:01:34;21.90;29.10
49184;DHT22;35021;49.214;12.270;2024-01-27T12:04:05;21.90;29.20
49184;DHT22;35021;49.214;12.270;2024-01-27T12:06:32;21.80;29.20
49184;DHT22;35021;49.214;12.270;2024-01-27T12:08:59;21.80;29.20
49184;DHT22;35021;49.214;12.270;2024-01-27T12:11:26;21.80;29.20
49184;DHT22;35021;49.214;12.270;2024-01-27T12:13:57;21.70;29.20
49184;DHT22;35021;49.214;12.270;2024-01-27T12:16:28;21.70;29.30
49184;DHT22;35021;49.214;12.270;2024-01-27T12:18:59;21.60;29.30
49184;DHT22;35021;49.214;12.270;2024-01-27T12:21:26;21.50;29.30
49184;DHT22;35021;49.214;12.270;2024-01-27T12:23:54;21.40;29.40
49184;DHT22;35021;49.214;12.270;2024-01-27T12:26:22;21.40;29.60
49184;DHT22;35021;49.214;12.270;2024-01-27T12:28:50;21.30;29.70
49184;DHT22;35021;49.214;12.270;2024-01-27T12:31:17;21.20;29.70
49184;DHT22;35021;49.214;12.270;2024-01-27T12:33:48;21.10;29.80
49184;DHT22;35021;49.214;12.270;2024-01-27T12:36:19;21.10;29.90
49184;DHT22;35021;49.214;12.270;2024-01-27T12:41:21;21.00;30.00
49184;DHT22;35021;49.214;12.270;2024-01-27T12:43:48;21.10;30.00
49184;DHT22;35021;49.214;12.270;2024-01-27T12:46:16;21.10;29.90
49184;DHT22;35021;49.214;12.270;2024-01-27T12:48:44;21.10;29.80
49184;DHT22;35021;49.214;12.270;2024-01-27T12:51:11;21.20;29.90
49184;DHT22;35021;49.214;12.270;2024-01-27T12:53:39;21.20;29.80
49184;DHT22;35021;49.214;12.270;2024-01-27T12:56:12;21.20;29.70
49184;DHT22;35021;49.214;12.270;2024-01-27T12:58:39;21.30;29.60
49184;DHT22;35021;49.214;12.270;2024-01-27T13:01:07;21.30;30.10
49184;DHT22;35021;49.214;12.270;2024-01-27T13:03:35;21.40;29.60
49184;DHT22;35021;49.214;12.270;2024-01-27T13:06:02;21.40;29.50
49184;DHT22;35021;49.214;12.270;2024-01-27T13:08:30;21.50;29.40
49184;DHT22;35021;49.214;12.270;2024-01-27T13:10:57;21.60;29.40
49184;DHT22;35021;49.214;12.270;2024-01-27T13:13:25;21.60;29.20
49184;DHT22;35021;49.214;12.270;2024-01-27T13:15:52;21.70;29.00
49184;DHT22;35021;49.214;12.270;2024-01-27T13:18:20;21.80;29.00
49184;DHT22;35021;49.214;12.270;2024-01-27T13:20:48;21.80;28.90
49184;DHT22;35021;49.214;12.270;2024-01-27T13:23:15;21.90;28.80
49184;DHT22;35021;49.214;12.270;2024-01-27T13:32:12;22.10;28.50
49184;DHT22;35021;49.214;12.270;2024-01-27T13:34:39;22.10;28.40
49184;DHT22;35021;49.214;12.270;2024-01-27T13:37:06;22.10;28.40
49184;DHT22;35021;49.214;12.270;2024-01-27T13:39:33;22.10;28.40
49184;DHT22;35021;49.214;12.270;2024-01-27T13:42:00;22.10;28.40
49184;DHT22;35021;49.214;12.270;2024-01-27T13:44:28;22.10;28.40
49184;DHT22;35021;49.214;12.270;2024-01-27T13:46:56;22.10;28.40
49184;DHT22;35021;49.214;12.270;2024-01-27T13:49:27;22.10;28.40
49184;DHT22;35021;49.214;12.270;2024-01-27T13:51:55;22.00;28.40
49184;DHT22;35021;49.214;12.270;2024-01-27T13:54:22;22.00;28.40
49184;DHT22;35021;49.214;12.270;2024-01-27T13:56:49;22.00;28.60
49184;DHT22;35021;49.214;12.270;2024-01-27T13:59:16;22.00;28.60
49184;DHT22;35021;49.214;12.270;2024-01-27T14:01:43;21.90;28.70
49184;DHT22;35021;49.214;12.270;2024-01-27T14:04:11;21.90;28.90
49184;DHT22;35021;49.214;12.270;2024-01-27T14:06:38;21.90;29.00
49184;DHT22;35021;49.214;12.270;2024-01-27T14:09:05;21.90;29.10
49184;DHT22;35021;49.214;12.270;2024-01-27T14:11:33;21.80;29.10
49184;DHT22;35021;49.214;12.270;2024-01-27T14:14:01;21.80;29.10
49184;DHT22;35021;49.214;12.270;2024-01-27T14:16:28;21.70;29.30
49184;DHT22;35021;49.214;12.270;2024-01-27T14:18:55;21.70;29.30
49184;DHT22;35021;49.214;12.270;2024-01-27T14:21:23;21.70;29.40
49184;DHT22;35021;49.214;12.270;2024-01-27T14:23:51;21.70;29.50
49184;DHT22;35021;49.214;12.270;2024-01-27T14:26:23;21.70;29.50
49184;DHT22;35021;49.214;12.270;2024-01-27T14:28:50;21.80;29.40
49184;DHT22;35021;49.214;12.270;2024-01-27T14:31:17;21.90;29.40
49184;DHT22;35021;49.214;12.270;2024-01-27T14:33:44;21.90;29.30
49184;DHT22;35021;49.214;12.270;2024-01-27T14:36:11;22.00;29.20
49184;DHT22;35021;49.214;12.270;2024-01-27T14:38:39;22.10;29.10
49184;DHT22;35021;49.214;12.270;2024-01-27T14:41:07;22.20;29.10
49184;DHT22;35021;49.214;12.270;2024-01-27T14:43:34;22.30;29.00
49184;DHT22;35021;49.214;12.270;2024-01-27T14:46:01;22.30;28.90
49184;DHT22;35021;49.214;12.270;2024-01-27T14:48:28;22.40;28.80
49184;DHT22;35021;49.214;12.270;2024-01-27T14:50:56;22.40;28.80
49184;DHT22;35021;49.214;12.270;2024-01-27T14:53:26;22.40;28.80
49184;DHT22;35021;49.214;12.270;2024-01-27T14:55:53;22.40;28.80
49184;DHT22;35021;49.214;12.270;2024-01-27T14:58:21;22.40;28.80
49184;DHT22;35021;49.214;12.270;2024-01-27T15:00:48;22.40;28.80
49184;DHT22;35021;49.214;12.270;2024-01-27T15:03:22;22.30;28.80
49184;DHT22;35021;49.214;12.270;2024-01-27T15:05:50;22.30;28.80
49184;DHT22;35021;49.214;12.270;2024-01-27T15:08:18;22.20;28.90
49184;DHT22;35021;49.214;12.270;2024-01-27T15:10:45;22.20;29.00
49184;DHT22;35021;49.214;12.270;2024-01-27T15:13:13;22.10;29.10
49184;DHT22;35021;49.214;12.270;2024-01-27T15:15:41;22.00;29.00
49184;DHT22;35021;49.214;12.270;2024-01-27T15:18:08;21.90;29.10
49184;DHT22;35021;49.214;12.270;2024-01-27T15:20:35;21.90;29.20
49184;DHT22;35021;49.214;12.270;2024-01-27T15:23:03;21.80;29.20
49184;DHT22;35021;49.214;12.270;2024-01-27T15:25:30;21.70;29.30
49184;DHT22;35021;49.214;12.270;2024-01-27T15:27:57;21.70;29.40
49184;DHT22;35021;49.214;12.270;2024-01-27T15:30:25;21.60;29.40